Four Lakes, Washington
Current Conditions -  °F | °C
As of 7:12 PM on Thursday 18 Dec 2014 (Local Time) from KSKA Reporting Station
Haze Haze  
Wind Chill: 36°   Ceiling: 6500
Heat Index: 36°   Visibility: 1.5mi
Dew Point: 36°   Wind: 3mph
Humidity: 100%   Direction: 50°NE
Pressure: 29.94"   Gusts: NA
Location:  47.56°N, 117.59°W
Report Text: KSKA 190312Z AUTO 05003KT 1 1/2SM BR FEW035 SCT042 BKN065 02/02 A2994 RMK AO2 VIS 3/4V1 1/2 DZE06 CIG 037 RWY05 $
Loading
Personal Weather Stations






























Interactive Weather Map New forecast layout! Learn more

10-Day Weather Forecast

Advertisements
Track Severe Weather on mobile